createdAt,value
2022-10-06T00:00:49.936Z,100.00
2022-10-06T00:03:17.653Z,100.00
2022-10-06T00:05:44.629Z,100.00
2022-10-06T00:08:11.655Z,100.00
2022-10-06T00:10:39.969Z,100.00
2022-10-06T00:13:07.219Z,100.00
2022-10-06T00:15:34.522Z,100.00
2022-10-06T00:18:02.386Z,100.00
2022-10-06T00:20:29.586Z,100.00
2022-10-06T00:22:57.171Z,100.00
2022-10-06T00:25:25.727Z,100.00
2022-10-06T00:27:53.406Z,100.00
2022-10-06T00:30:26.032Z,100.00
2022-10-06T00:33:00.853Z,100.00
2022-10-06T00:35:34.323Z,100.00
2022-10-06T00:38:02.086Z,100.00
2022-10-06T00:40:30.346Z,100.00
2022-10-06T00:43:04.990Z,100.00
2022-10-06T00:45:40.200Z,100.00
2022-10-06T00:48:15.486Z,100.00
2022-10-06T00:50:42.941Z,100.00
2022-10-06T00:53:11.429Z,100.00
2022-10-06T00:55:38.797Z,100.00
2022-10-06T00:58:07.593Z,100.00
2022-10-06T01:00:34.981Z,100.00
2022-10-06T01:03:49.650Z,100.00
2022-10-06T01:06:16.759Z,100.00
2022-10-06T01:08:43.977Z,100.00
2022-10-06T01:11:14.273Z,100.00
2022-10-06T01:13:44.329Z,100.00
2022-10-06T01:16:23.498Z,100.00
2022-10-06T01:18:53.419Z,100.00
2022-10-06T01:21:35.153Z,100.00
2022-10-06T01:24:03.606Z,100.00
2022-10-06T01:26:33.931Z,100.00
2022-10-06T01:29:01.337Z,100.00
2022-10-06T01:31:29.692Z,100.00
2022-10-06T01:33:57.432Z,100.00
2022-10-06T01:36:24.587Z,100.00
2022-10-06T01:38:52.171Z,100.00
2022-10-06T01:41:19.641Z,100.00
2022-10-06T01:43:47.029Z,100.00
2022-10-06T01:46:15.128Z,100.00
2022-10-06T01:48:42.195Z,100.00
2022-10-06T01:51:16.205Z,100.00
2022-10-06T01:53:43.303Z,100.00
2022-10-06T01:56:10.461Z,100.00
2022-10-06T01:58:38.037Z,100.00
2022-10-06T02:01:08.052Z,100.00
2022-10-06T02:03:40.697Z,100.00
2022-10-06T02:06:10.170Z,100.00
2022-10-06T02:08:37.810Z,100.00
2022-10-06T02:11:11.252Z,100.00
2022-10-06T02:13:41.783Z,100.00
2022-10-06T02:16:10.040Z,100.00
2022-10-06T02:18:37.183Z,100.00
2022-10-06T02:21:04.810Z,100.00
2022-10-06T02:23:32.342Z,100.00
2022-10-06T02:26:01.844Z,100.00
2022-10-06T02:28:31.164Z,100.00
2022-10-06T02:31:09.016Z,100.00
2022-10-06T02:33:38.461Z,100.00
2022-10-06T02:36:08.587Z,100.00
2022-10-06T02:38:35.850Z,100.00
2022-10-06T02:41:07.177Z,100.00
2022-10-06T02:43:35.832Z,100.00
2022-10-06T02:46:12.153Z,100.00
2022-10-06T02:48:43.163Z,100.00
2022-10-06T02:51:15.551Z,100.00
2022-10-06T02:53:45.959Z,100.00
2022-10-06T02:56:22.985Z,100.00
2022-10-06T02:58:51.903Z,100.00
2022-10-06T03:01:31.256Z,100.00
2022-10-06T03:04:02.560Z,100.00
2022-10-06T03:06:31.209Z,100.00
2022-10-06T03:09:19.190Z,100.00
2022-10-06T03:11:46.310Z,100.00
2022-10-06T03:14:21.856Z,100.00
2022-10-06T03:16:51.943Z,100.00
2022-10-06T03:19:25.848Z,100.00
2022-10-06T03:21:53.778Z,100.00
2022-10-06T03:24:23.944Z,100.00
2022-10-06T03:26:55.209Z,100.00
2022-10-06T03:29:22.218Z,100.00
2022-10-06T03:31:53.564Z,100.00
2022-10-06T03:34:20.658Z,100.00
2022-10-06T03:36:47.978Z,100.00
2022-10-06T03:39:18.671Z,100.00
2022-10-06T03:41:45.700Z,100.00
2022-10-06T03:44:12.696Z,100.00
2022-10-06T03:46:42.507Z,100.00
2022-10-06T03:49:10.791Z,100.00
2022-10-06T03:51:40.982Z,100.00
2022-10-06T03:54:12.834Z,100.00
2022-10-06T03:56:43.348Z,100.00
2022-10-06T03:59:17.388Z,100.00
2022-10-06T04:01:48.236Z,100.00
2022-10-06T04:04:23.656Z,100.00
2022-10-06T04:06:55.030Z,100.00
2022-10-06T04:09:22.957Z,100.00
2022-10-06T04:11:59.450Z,100.00
2022-10-06T04:14:26.576Z,100.00
2022-10-06T04:16:53.861Z,100.00
2022-10-06T04:19:25.411Z,100.00
2022-10-06T04:21:55.290Z,100.00
2022-10-06T04:24:24.570Z,100.00
2022-10-06T04:27:14.250Z,100.00
2022-10-06T04:29:42.062Z,100.00
2022-10-06T04:32:09.089Z,100.00
2022-10-06T04:34:37.913Z,100.00
2022-10-06T04:37:05.056Z,100.00
2022-10-06T04:39:34.719Z,100.00
2022-10-06T04:42:03.355Z,100.00
2022-10-06T04:44:31.691Z,100.00
2022-10-06T04:47:01.373Z,100.00
2022-10-06T04:49:28.592Z,100.00
2022-10-06T04:51:56.689Z,100.00
2022-10-06T04:54:24.123Z,100.00
2022-10-06T04:56:56.662Z,100.00
2022-10-06T04:59:45.575Z,100.00
2022-10-06T05:02:14.497Z,100.00
2022-10-06T05:04:42.820Z,100.00
2022-10-06T05:07:10.240Z,100.00
2022-10-06T05:09:37.403Z,100.00
2022-10-06T05:12:04.737Z,100.00
2022-10-06T05:14:33.396Z,100.00
2022-10-06T05:17:00.960Z,100.00
2022-10-06T05:19:29.418Z,100.00
2022-10-06T05:21:57.010Z,100.00
2022-10-06T05:24:27.161Z,100.00
2022-10-06T05:26:57.249Z,100.00
2022-10-06T05:29:26.869Z,100.00
2022-10-06T05:31:54.187Z,100.00
2022-10-06T05:34:22.049Z,100.00
2022-10-06T05:36:48.990Z,100.00
2022-10-06T05:39:16.054Z,100.00
2022-10-06T05:41:46.932Z,100.00
2022-10-06T05:44:14.764Z,100.00
2022-10-06T05:46:43.711Z,100.00
2022-10-06T05:49:12.828Z,100.00
2022-10-06T05:51:47.767Z,100.00
2022-10-06T05:54:22.344Z,100.00
2022-10-06T05:56:49.851Z,100.00
2022-10-06T05:59:16.960Z,100.00
2022-10-06T06:01:44.571Z,100.00
2022-10-06T06:04:31.953Z,100.00
2022-10-06T06:06:58.968Z,100.00
2022-10-06T06:09:28.736Z,100.00
2022-10-06T06:12:00.049Z,100.00
2022-10-06T06:15:09.203Z,100.00
2022-10-06T06:17:44.099Z,100.00
2022-10-06T06:20:12.137Z,100.00
2022-10-06T06:22:39.190Z,100.00
2022-10-06T06:25:07.725Z,100.00
2022-10-06T06:27:35.619Z,100.00
2022-10-06T06:30:03.675Z,100.00
2022-10-06T06:32:31.469Z,100.00
2022-10-06T06:34:59.037Z,100.00
2022-10-06T06:37:26.597Z,100.00
2022-10-06T06:39:54.653Z,100.00
2022-10-06T06:42:21.767Z,100.00
2022-10-06T06:44:48.972Z,100.00
2022-10-06T06:47:48.120Z,100.00
2022-10-06T06:50:17.219Z,100.00
2022-10-06T06:52:44.422Z,100.00
2022-10-06T06:55:14.604Z,100.00
2022-10-06T06:57:42.393Z,100.00
2022-10-06T07:00:10.223Z,100.00
2022-10-06T07:02:38.975Z,100.00
2022-10-06T07:05:06.909Z,100.00
2022-10-06T07:07:33.951Z,100.00
2022-10-06T07:10:01.274Z,99.37
2022-10-06T07:12:31.676Z,98.95
2022-10-06T07:15:18.451Z,97.94
2022-10-06T07:18:15.811Z,97.21
2022-10-06T07:21:01.569Z,97.01
2022-10-06T07:23:47.619Z,96.91
2022-10-06T07:26:17.945Z,95.93
2022-10-06T07:28:45.907Z,94.67
2022-10-06T07:31:19.236Z,93.77
2022-10-06T07:33:48.052Z,93.09
2022-10-06T07:36:16.672Z,93.16
2022-10-06T07:38:44.210Z,92.77
2022-10-06T07:41:19.707Z,92.89
2022-10-06T07:43:54.445Z,92.72
2022-10-06T07:46:22.640Z,92.08
2022-10-06T07:49:17.347Z,92.40
2022-10-06T07:51:45.573Z,91.60
2022-10-06T07:54:12.880Z,91.04
2022-10-06T07:57:05.877Z,89.82
2022-10-06T07:59:34.627Z,89.69
2022-10-06T08:02:01.692Z,89.14
2022-10-06T08:04:28.711Z,89.47
2022-10-06T08:06:57.739Z,89.51
2022-10-06T08:09:24.827Z,89.75
2022-10-06T08:11:52.948Z,88.33
2022-10-06T08:14:20.000Z,87.67
2022-10-06T08:16:46.957Z,88.20
2022-10-06T08:19:14.643Z,87.42
2022-10-06T08:21:41.615Z,87.47
2022-10-06T08:24:09.777Z,86.25
2022-10-06T08:26:36.805Z,86.11
2022-10-06T08:29:04.460Z,86.32
2022-10-06T08:31:32.359Z,84.63
2022-10-06T08:33:59.613Z,84.31
2022-10-06T08:36:31.953Z,84.39
2022-10-06T08:39:00.959Z,84.49
2022-10-06T08:41:44.823Z,82.76
2022-10-06T08:44:20.771Z,82.64
2022-10-06T08:47:13.744Z,82.61
2022-10-06T08:49:45.653Z,82.70
2022-10-06T08:52:27.463Z,81.63
2022-10-06T08:55:38.219Z,81.19
2022-10-06T08:58:34.263Z,80.19
2022-10-06T09:01:30.077Z,78.03
2022-10-06T09:04:05.159Z,77.55
2022-10-06T09:06:55.320Z,76.89
2022-10-06T09:09:43.122Z,77.60
2022-10-06T09:12:45.350Z,77.93
2022-10-06T09:15:44.844Z,76.56
2022-10-06T09:18:49.844Z,76.54
2022-10-06T09:21:40.550Z,75.92
2022-10-06T09:24:17.788Z,76.00
2022-10-06T09:26:48.660Z,75.34
2022-10-06T09:29:16.648Z,74.85
2022-10-06T09:31:50.487Z,73.96
2022-10-06T09:34:39.418Z,70.83
2022-10-06T09:37:11.081Z,71.82
2022-10-06T09:39:44.983Z,72.88
2022-10-06T09:42:34.163Z,71.83
2022-10-06T09:45:23.728Z,71.95
2022-10-06T09:47:50.709Z,72.83
2022-10-06T09:50:29.675Z,72.95
2022-10-06T09:53:03.352Z,70.74
2022-10-06T09:55:44.162Z,69.05
2022-10-06T09:58:26.680Z,68.36
2022-10-06T10:01:00.501Z,68.70
2022-10-06T10:06:40.454Z,67.73
2022-10-06T10:09:21.868Z,67.22
2022-10-06T10:12:24.430Z,67.37
2022-10-06T10:15:12.775Z,67.99
2022-10-06T10:17:48.284Z,67.59
2022-10-06T10:20:28.290Z,67.60
2022-10-06T10:23:06.022Z,67.01
2022-10-06T10:25:44.961Z,65.67
2022-10-06T10:28:17.236Z,64.38
2022-10-06T10:31:41.806Z,63.75
2022-10-06T10:34:33.405Z,62.36
2022-10-06T10:37:17.387Z,61.27
2022-10-06T10:39:54.182Z,61.72
2022-10-06T10:42:31.384Z,62.90
2022-10-06T10:45:04.265Z,64.97
2022-10-06T10:47:45.647Z,65.96
2022-10-06T10:50:43.810Z,66.75
2022-10-06T10:53:38.885Z,66.07
2022-10-06T10:56:12.146Z,65.70
2022-10-06T10:58:42.365Z,64.77
2022-10-06T11:01:34.033Z,64.19
2022-10-06T11:04:02.270Z,64.05
2022-10-06T11:07:09.155Z,64.36
2022-10-06T11:10:06.522Z,63.91
2022-10-06T11:12:51.178Z,63.08
2022-10-06T11:15:47.165Z,63.07
2022-10-06T11:18:32.074Z,62.19
2022-10-06T11:21:11.934Z,62.39
2022-10-06T11:23:50.912Z,63.77
2022-10-06T11:26:35.969Z,62.67
2022-10-06T11:29:22.989Z,62.29
2022-10-06T11:32:11.613Z,60.44
2022-10-06T11:34:39.395Z,58.12
2022-10-06T11:37:20.512Z,58.70
2022-10-06T11:39:50.233Z,56.98
2022-10-06T11:42:43.132Z,56.13
2022-10-06T11:45:16.642Z,55.02
2022-10-06T11:48:10.383Z,55.94
2022-10-06T11:50:42.681Z,56.78
2022-10-06T11:53:39.586Z,57.41
2022-10-06T11:56:18.647Z,57.90
2022-10-06T11:58:51.467Z,57.13
2022-10-06T12:01:50.589Z,56.77
2022-10-06T12:04:24.155Z,56.86
2022-10-06T12:06:57.076Z,55.81
2022-10-06T12:09:33.026Z,56.31
2022-10-06T12:12:14.895Z,56.30
2022-10-06T12:18:37.427Z,56.24
2022-10-06T12:21:33.082Z,56.14
2022-10-06T12:24:42.960Z,54.98
2022-10-06T12:27:26.576Z,56.43
2022-10-06T12:30:03.998Z,55.42
2022-10-06T12:32:56.493Z,55.84
2022-10-06T12:35:39.916Z,54.81
2022-10-06T12:38:35.646Z,54.61
2022-10-06T12:41:02.676Z,52.98
2022-10-06T12:43:33.150Z,54.10
2022-10-06T12:46:08.421Z,52.83
2022-10-06T12:48:44.011Z,52.31
2022-10-06T12:51:39.000Z,52.45
2022-10-06T12:54:21.817Z,53.14
2022-10-06T12:57:28.545Z,53.05
2022-10-06T12:59:55.515Z,53.21
2022-10-06T13:02:27.390Z,52.85
2022-10-06T13:04:59.686Z,53.23
2022-10-06T13:07:29.488Z,52.86
2022-10-06T13:10:14.701Z,52.10
2022-10-06T13:12:50.067Z,53.24
2022-10-06T13:15:23.724Z,52.34
2022-10-06T13:18:12.007Z,53.17
2022-10-06T13:20:55.420Z,53.04
2022-10-06T13:23:25.940Z,52.37
2022-10-06T13:25:56.347Z,51.95
2022-10-06T13:28:43.561Z,52.53
2022-10-06T13:31:27.431Z,52.82
2022-10-06T13:34:13.046Z,52.42
2022-10-06T13:36:44.126Z,52.39
2022-10-06T13:39:14.261Z,52.17
2022-10-06T13:42:10.198Z,52.25
2022-10-06T13:44:40.078Z,51.27
2022-10-06T13:47:22.729Z,51.03
2022-10-06T13:50:19.747Z,51.62
2022-10-06T13:52:48.519Z,52.29
2022-10-06T13:55:29.646Z,52.18
2022-10-06T13:57:56.699Z,51.46
2022-10-06T14:00:28.538Z,51.64
2022-10-06T14:03:05.262Z,51.37
2022-10-06T14:05:40.539Z,51.90
2022-10-06T14:08:26.524Z,52.13
2022-10-06T14:11:01.363Z,51.50
2022-10-06T14:13:54.212Z,51.14
2022-10-06T14:16:26.534Z,51.52
2022-10-06T14:19:00.148Z,52.05
2022-10-06T14:21:36.618Z,52.27
2022-10-06T14:24:16.841Z,51.97
2022-10-06T14:26:45.947Z,51.96
2022-10-06T14:29:17.609Z,51.68
2022-10-06T14:31:45.671Z,52.35
2022-10-06T14:34:16.366Z,52.70
2022-10-06T14:36:51.522Z,53.47
2022-10-06T14:39:19.508Z,54.72
2022-10-06T14:41:46.782Z,54.68
2022-10-06T14:44:16.943Z,54.33
2022-10-06T14:46:48.031Z,54.28
2022-10-06T14:49:16.014Z,54.10
2022-10-06T14:51:44.476Z,54.16
2022-10-06T14:54:12.237Z,54.90
2022-10-06T14:56:40.749Z,55.18
2022-10-06T14:59:12.518Z,55.59
2022-10-06T15:01:42.810Z,55.41
2022-10-06T15:04:19.585Z,55.89
2022-10-06T15:07:05.771Z,55.60
2022-10-06T15:09:33.105Z,54.30
2022-10-06T15:12:00.789Z,54.58
2022-10-06T15:14:29.480Z,54.81
2022-10-06T15:17:01.178Z,55.15
2022-10-06T15:19:28.542Z,55.60
2022-10-06T15:21:59.116Z,55.94
2022-10-06T15:24:26.111Z,56.60
2022-10-06T15:27:11.768Z,56.86
2022-10-06T15:29:39.016Z,57.28
2022-10-06T15:32:12.669Z,57.23
2022-10-06T15:34:39.650Z,57.12
2022-10-06T15:37:09.573Z,57.55
2022-10-06T15:39:37.827Z,57.35
2022-10-06T15:42:05.969Z,57.60
2022-10-06T15:44:36.487Z,58.34
2022-10-06T15:47:05.962Z,57.66
2022-10-06T15:49:38.117Z,58.04
2022-10-06T15:52:07.372Z,58.45
2022-10-06T15:54:38.758Z,58.87
2022-10-06T15:57:09.542Z,59.08
2022-10-06T15:59:40.001Z,59.39
2022-10-06T16:02:14.805Z,60.05
2022-10-06T16:04:42.916Z,60.11
2022-10-06T16:07:18.594Z,60.63
2022-10-06T16:09:48.537Z,61.51
2022-10-06T16:12:19.639Z,62.01
2022-10-06T16:14:47.496Z,62.29
2022-10-06T16:17:15.158Z,62.50
2022-10-06T16:19:42.640Z,62.70
2022-10-06T16:22:13.593Z,63.00
2022-10-06T16:24:40.665Z,63.13
2022-10-06T16:27:12.749Z,63.46
2022-10-06T16:29:40.038Z,63.48
2022-10-06T16:32:07.003Z,63.94
2022-10-06T16:34:34.422Z,64.73
2022-10-06T16:37:01.346Z,64.85
2022-10-06T16:39:28.558Z,65.14
2022-10-06T16:41:55.728Z,65.73
2022-10-06T16:44:25.059Z,66.09
2022-10-06T16:46:52.076Z,66.27
2022-10-06T16:49:19.766Z,66.96
2022-10-06T16:51:46.739Z,66.68
2022-10-06T16:54:17.105Z,66.62
2022-10-06T16:56:53.865Z,67.53
2022-10-06T16:59:23.481Z,67.60
2022-10-06T17:01:50.932Z,67.31
2022-10-06T17:04:22.804Z,67.58
2022-10-06T17:06:55.699Z,67.87
2022-10-06T17:09:25.768Z,68.01
2022-10-06T17:11:56.450Z,68.00
2022-10-06T17:14:24.172Z,67.81
2022-10-06T17:16:53.722Z,68.47
2022-10-06T17:19:25.397Z,68.63
2022-10-06T17:21:58.234Z,68.86
2022-10-06T17:24:28.043Z,68.90
2022-10-06T17:26:56.642Z,69.24
2022-10-06T17:29:24.703Z,69.33
2022-10-06T17:31:56.219Z,69.39
2022-10-06T17:34:26.441Z,70.02
2022-10-06T17:36:55.060Z,70.27
2022-10-06T17:39:24.423Z,70.44
2022-10-06T17:41:53.490Z,71.11
2022-10-06T17:44:25.712Z,71.29
2022-10-06T17:46:57.965Z,71.70
2022-10-06T17:49:26.925Z,71.76
2022-10-06T17:51:55.212Z,72.01
2022-10-06T17:54:25.324Z,72.59
2022-10-06T17:56:55.728Z,72.22
2022-10-06T17:59:30.279Z,72.60
2022-10-06T18:02:01.055Z,73.02
2022-10-06T18:04:28.933Z,73.12
2022-10-06T18:06:57.024Z,73.80
2022-10-06T18:09:24.547Z,74.14
2022-10-06T18:11:56.203Z,74.47
2022-10-06T18:14:27.489Z,74.68
2022-10-06T18:17:00.836Z,74.56
2022-10-06T18:19:34.273Z,74.93
2022-10-06T18:22:10.792Z,75.41
2022-10-06T18:24:38.889Z,75.86
2022-10-06T18:27:07.863Z,76.39
2022-10-06T18:29:38.299Z,76.38
2022-10-06T18:36:12.234Z,76.55
2022-10-06T18:37:41.457Z,76.95
2022-10-06T18:40:09.966Z,76.89
2022-10-06T18:42:39.020Z,77.42
2022-10-06T18:45:26.266Z,77.47
2022-10-06T18:48:11.821Z,77.78
2022-10-06T18:50:39.538Z,77.71
2022-10-06T18:53:06.932Z,77.66
2022-10-06T18:55:34.852Z,78.41
2022-10-06T18:58:02.053Z,78.27
2022-10-06T19:00:29.039Z,79.14
2022-10-06T19:02:56.774Z,79.41
2022-10-06T19:05:24.319Z,79.76
2022-10-06T19:07:53.699Z,79.56
2022-10-06T19:10:20.954Z,80.02
2022-10-06T19:12:48.439Z,80.52
2022-10-06T19:15:20.330Z,80.63
2022-10-06T19:17:49.577Z,81.33
2022-10-06T19:20:18.211Z,80.86
2022-10-06T19:22:46.045Z,81.12
2022-10-06T19:25:14.675Z,81.46
2022-10-06T19:27:41.898Z,81.98
2022-10-06T19:30:09.507Z,82.24
2022-10-06T19:32:37.181Z,82.38
2022-10-06T19:35:09.212Z,82.28
2022-10-06T19:37:37.236Z,82.50
2022-10-06T19:40:05.879Z,82.45
2022-10-06T19:42:48.765Z,82.70
2022-10-06T19:45:17.897Z,82.51
2022-10-06T19:47:46.205Z,82.96
2022-10-06T19:50:15.111Z,83.05
2022-10-06T19:52:42.547Z,82.84
2022-10-06T19:55:09.636Z,83.27
2022-10-06T19:57:37.123Z,83.18
2022-10-06T20:00:08.125Z,83.50
2022-10-06T20:02:43.219Z,83.71
2022-10-06T20:05:20.088Z,83.63
2022-10-06T20:07:47.728Z,83.56
2022-10-06T20:10:15.333Z,83.88
2022-10-06T20:12:42.392Z,84.67
2022-10-06T20:15:10.474Z,84.35
2022-10-06T20:17:37.971Z,85.53
2022-10-06T20:20:05.607Z,84.64
2022-10-06T20:22:32.808Z,83.81
2022-10-06T20:25:01.856Z,83.71
2022-10-06T20:27:29.032Z,84.58
2022-10-06T20:29:58.041Z,84.32
2022-10-06T20:32:25.159Z,84.50
2022-10-06T20:34:52.084Z,84.23
2022-10-06T20:37:19.115Z,84.47
2022-10-06T20:40:04.704Z,84.66
2022-10-06T20:42:31.731Z,85.18
2022-10-06T20:44:58.980Z,84.85
2022-10-06T20:47:25.946Z,85.42
2022-10-06T20:49:55.079Z,85.83
2022-10-06T20:52:24.308Z,86.00
2022-10-06T20:54:51.332Z,86.19
2022-10-06T20:57:18.640Z,85.91
2022-10-06T20:59:46.072Z,86.02
2022-10-06T21:02:13.532Z,86.57
2022-10-06T21:04:45.274Z,87.26
2022-10-06T21:07:12.412Z,86.79
2022-10-06T21:09:40.102Z,87.21
2022-10-06T21:12:07.395Z,87.76
2022-10-06T21:14:37.638Z,87.60
2022-10-06T21:17:06.884Z,87.67
2022-10-06T21:19:38.064Z,87.90
2022-10-06T21:22:05.914Z,87.77
2022-10-06T21:24:33.144Z,88.52
2022-10-06T21:27:00.434Z,88.83
2022-10-06T21:29:27.591Z,88.81
2022-10-06T21:31:55.457Z,88.97
2022-10-06T21:34:22.568Z,89.15
2022-10-06T21:36:49.679Z,89.10
2022-10-06T21:39:16.742Z,89.37
2022-10-06T21:41:43.897Z,89.25
2022-10-06T21:44:19.027Z,90.13
2022-10-06T21:46:48.256Z,90.12
2022-10-06T21:49:19.270Z,89.85
2022-10-06T21:51:49.675Z,90.53
2022-10-06T21:54:17.311Z,90.69
2022-10-06T21:56:45.579Z,90.40
2022-10-06T21:59:13.209Z,90.65
2022-10-06T22:01:43.507Z,91.55
2022-10-06T22:04:14.586Z,91.38
2022-10-06T22:06:43.359Z,90.90
2022-10-06T22:09:15.533Z,90.70
2022-10-06T22:11:43.578Z,90.45
2022-10-06T22:14:15.018Z,90.42
2022-10-06T22:16:43.073Z,90.27
2022-10-06T22:19:12.771Z,90.53
2022-10-06T22:21:44.214Z,91.13
2022-10-06T22:24:15.964Z,91.47
2022-10-06T22:26:44.342Z,91.93
2022-10-06T22:29:15.095Z,92.01
2022-10-06T22:31:45.276Z,92.52
2022-10-06T22:34:16.987Z,92.74
2022-10-06T22:36:44.112Z,92.84
2022-10-06T22:39:11.491Z,92.91
2022-10-06T22:41:38.871Z,93.23
2022-10-06T22:44:06.174Z,93.56
2022-10-06T22:46:35.856Z,93.75
2022-10-06T22:49:04.298Z,94.00
2022-10-06T22:51:31.615Z,94.49
2022-10-06T22:54:00.443Z,94.51
2022-10-06T22:56:29.863Z,94.63
2022-10-06T22:58:59.896Z,94.78
2022-10-06T23:01:29.253Z,94.78
2022-10-06T23:03:57.134Z,94.61
2022-10-06T23:06:24.721Z,95.12
2022-10-06T23:08:52.305Z,95.09
2022-10-06T23:11:21.615Z,95.67
2022-10-06T23:13:50.476Z,95.70
2022-10-06T23:16:19.719Z,96.33
2022-10-06T23:18:47.914Z,96.76
2022-10-06T23:21:22.392Z,96.66
2022-10-06T23:23:53.004Z,97.04
2022-10-06T23:26:22.237Z,96.81
2022-10-06T23:28:56.525Z,97.13
2022-10-06T23:31:28.478Z,97.64
2022-10-06T23:33:56.066Z,97.79
2022-10-06T23:36:23.112Z,97.89
2022-10-06T23:38:50.650Z,97.86
2022-10-06T23:41:18.249Z,98.05
2022-10-06T23:43:45.574Z,97.95
2022-10-06T23:46:13.455Z,98.38
2022-10-06T23:48:41.135Z,98.31
2022-10-06T23:51:11.903Z,97.71
2022-10-06T23:53:39.712Z,97.55
2022-10-06T23:56:08.182Z,97.27
2022-10-06T23:58:35.677Z,96.93
